Terminal Aerodrome Forecast
Issued by NWS

Home | Current Version | Previous Version | Graphics & Text | Print | Product List | Glossary Off
Versions: 1 2 3 4 5 6 7 8 9 10 11 12 13 14 15 16 17 18

000
FTUS41 KCLE 271700
TAFFDY
TAF
KFDY 271734Z 2718/2818 21012G18KT P6SM -SHRA BKN020 OVC030
      TEMPO 2719/2722 3SM -SHRA BR SCT020 OVC035
     FM272200 21010G18KT 5SM -RA BR OVC015
     FM280000 23010KT 5SM -RA BR OVC010
     FM280500 28010KT 6SM -SHRA SCT012 OVC018
     FM280900 28008KT 6SM BR VCSH OVC020
     FM281300 28009KT P6SM VCSH OVC025
     FM281500 28010KT P6SM BKN030=

USA.gov is the U.S. government's official web portal to all federal, state and local government web resources and services.